createdAt,value
2018-03-06T00:01:10.111Z,211.63
2018-03-06T00:05:13.518Z,118.80
2018-03-06T00:09:16.908Z,161.93
2018-03-06T00:13:20.321Z,243.93
2018-03-06T00:17:23.703Z,242.37
2018-03-06T00:21:27.472Z,180.10
2018-03-06T00:25:31.672Z,254.00
2018-03-06T00:29:35.030Z,186.73
2018-03-06T00:33:38.397Z,350.73
2018-03-06T00:37:41.826Z,254.07
2018-03-06T00:41:45.958Z,221.30
2018-03-06T00:45:49.342Z,178.80
2018-03-06T00:49:53.699Z,202.67
2018-03-06T00:53:57.105Z,220.10
2018-03-06T00:58:00.543Z,221.87
2018-03-06T01:02:03.929Z,192.63
2018-03-06T01:06:07.311Z,185.70
2018-03-06T01:10:10.831Z,179.10
2018-03-06T01:14:14.234Z,184.50
2018-03-06T01:18:17.635Z,193.50
2018-03-06T01:22:21.339Z,206.20
2018-03-06T01:26:25.508Z,152.03
2018-03-06T01:30:28.906Z,184.47
2018-03-06T01:34:32.274Z,219.73
2018-03-06T01:38:36.697Z,197.37
2018-03-06T01:42:40.846Z,254.10
2018-03-06T01:46:44.304Z,378.73
2018-03-06T01:50:48.456Z,298.77
2018-03-06T01:54:52.581Z,196.80
2018-03-06T01:58:56.759Z,182.60
2018-03-06T02:03:00.148Z,151.47
2018-03-06T02:07:03.560Z,229.63
2018-03-06T02:11:06.943Z,227.23
2018-03-06T02:15:10.350Z,278.20
2018-03-06T02:19:13.744Z,281.77
2018-03-06T02:23:17.881Z,298.30
2018-03-06T02:27:21.284Z,265.77
2018-03-06T02:31:24.784Z,323.43
2018-03-06T02:35:28.918Z,366.07
2018-03-06T02:39:32.326Z,315.23
2018-03-06T02:43:35.713Z,285.17
2018-03-06T02:47:39.894Z,286.17
2018-03-06T02:51:43.314Z,267.27
2018-03-06T02:55:46.704Z,300.63
2018-03-06T02:59:50.130Z,289.83
2018-03-06T03:03:53.519Z,359.57
2018-03-06T03:07:56.926Z,315.60
2018-03-06T03:12:00.417Z,301.53
2018-03-06T03:16:03.841Z,308.27
2018-03-06T03:20:07.324Z,347.17
2018-03-06T03:24:10.715Z,309.80
2018-03-06T03:28:14.092Z,265.50
2018-03-06T03:32:18.245Z,298.47
2018-03-06T03:36:21.616Z,333.90
2018-03-06T03:40:24.995Z,387.60
2018-03-06T03:44:29.562Z,297.67
2018-03-06T03:48:33.693Z,333.37
2018-03-06T03:52:37.821Z,344.87
2018-03-06T03:56:41.949Z,391.60
2018-03-06T04:00:45.354Z,328.57
2018-03-06T04:04:48.720Z,316.83
2018-03-06T04:08:52.139Z,314.23
2018-03-06T04:12:57.025Z,332.13
2018-03-06T04:17:00.550Z,348.03
2018-03-06T04:21:03.928Z,356.60
2018-03-06T04:25:07.317Z,315.33
2018-03-06T04:29:11.450Z,326.10
2018-03-06T04:33:15.571Z,267.80
2018-03-06T04:37:19.727Z,319.13
2018-03-06T04:41:23.102Z,278.77
2018-03-06T04:45:27.337Z,220.37
2018-03-06T04:49:30.721Z,261.07
2018-03-06T04:53:34.887Z,219.03
2018-03-06T04:57:38.283Z,296.93
2018-03-06T05:01:41.659Z,346.40
2018-03-06T05:05:45.795Z,234.43
2018-03-06T05:09:50.060Z,246.73
2018-03-06T05:13:53.454Z,348.90
2018-03-06T05:17:56.825Z,342.70
2018-03-06T05:22:00.983Z,440.13
2018-03-06T05:26:04.522Z,302.03
2018-03-06T05:30:07.994Z,278.17
2018-03-06T05:34:11.444Z,290.30
2018-03-06T05:38:14.817Z,310.80
2018-03-06T05:42:18.209Z,284.07
2018-03-06T05:46:21.594Z,359.80
2018-03-06T05:50:25.750Z,341.73
2018-03-06T05:54:29.189Z,303.07
2018-03-06T05:58:32.618Z,373.13
2018-03-06T06:02:36.792Z,311.93
2018-03-06T06:06:40.180Z,291.33
2018-03-06T06:10:43.553Z,352.20
2018-03-06T06:14:46.951Z,319.07
2018-03-06T06:18:50.521Z,255.73
2018-03-06T06:22:53.886Z,279.03
2018-03-06T06:26:57.382Z,274.40
2018-03-06T06:31:00.821Z,274.40
2018-03-06T06:35:05.106Z,295.33
2018-03-06T06:39:08.482Z,284.37
2018-03-06T06:43:11.841Z,334.97
2018-03-06T06:47:15.985Z,318.17
2018-03-06T06:51:20.129Z,268.63
2018-03-06T06:55:23.476Z,297.00
2018-03-06T06:59:26.920Z,336.33
2018-03-06T07:03:31.067Z,233.47
2018-03-06T07:07:34.450Z,257.10
2018-03-06T07:11:38.571Z,248.13
2018-03-06T07:15:42.769Z,263.93
2018-03-06T07:19:46.123Z,263.30
2018-03-06T07:23:49.478Z,227.57
2018-03-06T07:27:52.990Z,170.20
2018-03-06T07:31:56.384Z,143.97
2018-03-06T07:35:59.746Z,149.37
2018-03-06T07:40:04.640Z,156.00
2018-03-06T07:44:08.059Z,127.77
2018-03-06T07:48:11.410Z,130.03
2018-03-06T07:52:14.823Z,137.50
2018-03-06T07:56:18.329Z,134.50
2018-03-06T08:00:21.703Z,145.47
2018-03-06T08:04:25.826Z,138.73
2018-03-06T08:08:30.242Z,126.10
2018-03-06T08:12:34.385Z,121.97
2018-03-06T08:16:37.763Z,113.87
2018-03-06T08:20:41.896Z,114.87
2018-03-06T08:24:46.094Z,113.80
2018-03-06T08:28:49.494Z,114.93
2018-03-06T08:32:53.869Z,98.10
2018-03-06T08:36:58.047Z,100.07
2018-03-06T08:41:01.490Z,97.10
2018-03-06T08:45:05.601Z,90.27
2018-03-06T08:49:08.967Z,97.07
2018-03-06T08:53:12.332Z,91.73
2018-03-06T08:57:16.495Z,94.03
2018-03-06T09:01:19.870Z,90.33
2018-03-06T09:05:23.242Z,90.60
2018-03-06T09:09:26.555Z,95.47
2018-03-06T09:13:29.904Z,96.37
2018-03-06T09:17:33.283Z,89.57
2018-03-06T09:21:37.430Z,89.87
2018-03-06T09:25:40.842Z,89.20
2018-03-06T09:29:44.209Z,90.47
2018-03-06T09:33:48.453Z,91.53
2018-03-06T09:37:51.831Z,93.97
2018-03-06T09:41:55.230Z,90.77
2018-03-06T09:45:58.590Z,93.10
2018-03-06T09:50:02.070Z,96.47
2018-03-06T09:54:06.254Z,103.53
2018-03-06T09:58:09.604Z,104.93
2018-03-06T10:02:13.764Z,104.80
2018-03-06T10:06:17.121Z,98.20
2018-03-06T10:10:21.257Z,104.17
2018-03-06T10:14:25.373Z,104.53
2018-03-06T10:18:29.560Z,104.83
2018-03-06T10:22:32.929Z,106.03
2018-03-06T10:26:36.356Z,112.07
2018-03-06T10:30:39.717Z,114.97
2018-03-06T10:34:43.854Z,114.17
2018-03-06T10:38:47.243Z,108.50
2018-03-06T10:42:51.406Z,121.10
2018-03-06T10:46:54.862Z,122.60
2018-03-06T10:50:58.232Z,105.83
2018-03-06T10:55:01.607Z,106.03
2018-03-06T10:59:05.124Z,105.87
2018-03-06T11:03:08.494Z,111.30
2018-03-06T11:07:12.700Z,105.87
2018-03-06T11:11:16.066Z,98.57
2018-03-06T11:15:19.413Z,99.37
2018-03-06T11:19:22.772Z,104.73
2018-03-06T11:23:26.146Z,104.83
2018-03-06T11:27:30.296Z,107.20
2018-03-06T11:31:33.648Z,109.33
2018-03-06T11:35:37.015Z,112.17
2018-03-06T11:39:40.391Z,105.93
2018-03-06T11:43:44.647Z,110.60
2018-03-06T11:47:48.008Z,107.33
2018-03-06T11:51:52.126Z,98.47
2018-03-06T11:55:55.698Z,106.17
2018-03-06T11:59:59.062Z,108.50
2018-03-06T12:04:03.432Z,97.50
2018-03-06T12:08:06.808Z,97.40
2018-03-06T12:12:10.205Z,107.57
2018-03-06T12:16:14.416Z,107.47
2018-03-06T12:20:17.778Z,103.57
2018-03-06T12:24:21.433Z,99.30
2018-03-06T12:28:25.528Z,104.27
2018-03-06T12:32:29.076Z,99.40
2018-03-06T12:36:33.227Z,111.93
2018-03-06T12:40:36.616Z,104.17
2018-03-06T12:44:39.989Z,108.50
2018-03-06T12:48:43.410Z,114.23
2018-03-06T12:52:47.525Z,103.70
2018-03-06T12:56:50.905Z,105.60
2018-03-06T13:00:54.284Z,101.93
2018-03-06T13:04:57.671Z,105.37
2018-03-06T13:09:01.414Z,105.27
2018-03-06T13:13:04.916Z,100.57
2018-03-06T13:17:08.270Z,102.37
2018-03-06T13:21:11.688Z,100.30
2018-03-06T13:25:15.833Z,103.53
2018-03-06T13:29:19.207Z,99.40
2018-03-06T13:33:22.582Z,98.93
2018-03-06T13:37:25.958Z,98.43
2018-03-06T13:41:29.333Z,104.17
2018-03-06T13:45:33.481Z,104.87
2018-03-06T13:49:36.846Z,102.27
2018-03-06T13:53:40.201Z,96.47
2018-03-06T13:57:43.575Z,106.47
2018-03-06T14:01:47.691Z,99.97
2018-03-06T14:05:51.847Z,93.13
2018-03-06T14:09:55.338Z,99.87
2018-03-06T14:13:59.486Z,104.07
2018-03-06T14:18:02.928Z,91.00
2018-03-06T14:22:06.338Z,95.63
2018-03-06T14:26:09.784Z,92.57
2018-03-06T14:30:13.994Z,92.10
2018-03-06T14:34:18.135Z,89.43
2018-03-06T14:38:22.307Z,96.83
2018-03-06T14:42:25.690Z,97.57
2018-03-06T14:46:29.286Z,100.80
2018-03-06T14:50:33.532Z,100.30
2018-03-06T14:54:37.012Z,99.20
2018-03-06T14:58:40.423Z,102.63
2018-03-06T15:02:43.818Z,96.90
2018-03-06T15:06:47.972Z,104.90
2018-03-06T15:10:51.354Z,106.63
2018-03-06T15:14:55.497Z,105.40
2018-03-06T15:18:58.974Z,106.07
2018-03-06T15:23:03.153Z,99.83
2018-03-06T15:27:06.510Z,100.47
2018-03-06T15:31:09.913Z,104.63
2018-03-06T15:35:14.044Z,101.40
2018-03-06T15:39:18.228Z,96.80
2018-03-06T15:43:21.560Z,94.93
2018-03-06T15:47:25.719Z,93.30
2018-03-06T15:51:29.093Z,90.13
2018-03-06T15:55:33.254Z,96.63
2018-03-06T15:59:36.647Z,93.40
2018-03-06T16:03:40.019Z,97.80
2018-03-06T16:07:43.406Z,102.07
2018-03-06T16:11:46.819Z,95.03
2018-03-06T16:15:50.403Z,104.27
2018-03-06T16:19:53.766Z,101.87
2018-03-06T16:23:58.079Z,101.20
2018-03-06T16:28:02.218Z,103.30
2018-03-06T16:32:06.351Z,104.43
2018-03-06T16:36:09.728Z,107.63
2018-03-06T16:40:13.102Z,104.50
2018-03-06T16:44:16.593Z,106.30
2018-03-06T16:48:20.030Z,114.37
2018-03-06T16:52:23.509Z,112.27
2018-03-06T16:56:26.895Z,108.50
2018-03-06T17:00:30.294Z,112.43
2018-03-06T17:04:33.693Z,132.60
2018-03-06T17:08:37.186Z,126.73
2018-03-06T17:12:41.355Z,130.93
2018-03-06T17:16:44.738Z,129.00
2018-03-06T17:20:48.127Z,128.83
2018-03-06T17:24:52.485Z,130.80
2018-03-06T17:28:55.860Z,134.97
2018-03-06T17:33:00.023Z,137.03
2018-03-06T17:37:03.427Z,140.27
2018-03-06T17:41:06.849Z,131.83
2018-03-06T17:45:10.235Z,136.40
2018-03-06T17:49:13.626Z,134.30
2018-03-06T17:53:16.990Z,144.63
2018-03-06T17:57:20.348Z,138.73
2018-03-06T18:01:23.768Z,151.37
2018-03-06T18:05:27.164Z,148.73
2018-03-06T18:09:30.558Z,147.20
2018-03-06T18:13:33.957Z,147.57
2018-03-06T18:17:38.122Z,134.67
2018-03-06T18:21:41.582Z,148.00
2018-03-06T18:25:45.817Z,149.73
2018-03-06T18:29:49.950Z,162.40
2018-03-06T18:33:53.344Z,152.73
2018-03-06T18:37:57.585Z,147.80
2018-03-06T18:42:00.999Z,158.87
2018-03-06T18:46:04.400Z,156.37
2018-03-06T18:54:45.511Z,158.03
2018-03-06T18:58:48.882Z,144.20
2018-03-06T19:03:10.500Z,150.23
2018-03-06T19:07:13.934Z,164.23
2018-03-06T19:11:18.128Z,148.67
2018-03-06T19:15:21.676Z,154.17
2018-03-06T19:19:25.827Z,163.67
2018-03-06T19:23:29.228Z,150.00
2018-03-06T19:27:32.625Z,150.67
2018-03-06T19:31:36.037Z,142.93
2018-03-06T19:35:39.461Z,145.63
2018-03-06T19:39:42.874Z,147.57
2018-03-06T19:43:46.255Z,147.50
2018-03-06T19:47:49.657Z,146.93
2018-03-06T19:51:53.028Z,141.43
2018-03-06T19:55:56.456Z,131.03
2018-03-06T20:00:00.745Z,146.47
2018-03-06T20:04:04.157Z,126.97
2018-03-06T20:08:07.604Z,134.63
2018-03-06T20:12:11.202Z,130.73
2018-03-06T20:16:15.356Z,136.83
2018-03-06T20:20:18.753Z,135.90
2018-03-06T20:24:27.823Z,139.93
2018-03-06T20:28:31.740Z,137.03
2018-03-06T20:32:40.996Z,138.23
2018-03-06T20:36:44.463Z,136.53
2018-03-06T20:40:47.939Z,131.37
2018-03-06T20:44:52.124Z,134.13
2018-03-06T20:48:55.487Z,133.50
2018-03-06T20:53:04.383Z,148.73
2018-03-06T20:57:10.066Z,137.27
2018-03-06T21:01:14.238Z,143.97
2018-03-06T21:05:17.631Z,139.60
2018-03-06T21:09:21.050Z,139.57
2018-03-06T21:13:24.456Z,153.50
2018-03-06T21:17:27.849Z,155.90
2018-03-06T21:21:31.319Z,156.47
2018-03-06T21:25:34.723Z,165.50
2018-03-06T21:29:38.115Z,162.73
2018-03-06T21:33:41.481Z,159.50
2018-03-06T21:37:44.854Z,163.30
2018-03-06T21:41:48.282Z,160.73
2018-03-06T21:45:51.682Z,161.37
2018-03-06T21:49:55.935Z,163.87
2018-03-06T21:53:59.318Z,163.43
2018-03-06T21:58:03.501Z,166.33
2018-03-06T22:02:06.871Z,160.87
2018-03-06T22:06:10.260Z,164.23
2018-03-06T22:10:13.866Z,162.90
2018-03-06T22:14:18.004Z,169.07
2018-03-06T22:18:21.696Z,173.70
2018-03-06T22:22:25.947Z,170.80
2018-03-06T22:26:29.334Z,175.50
2018-03-06T22:30:32.740Z,177.80
2018-03-06T22:34:36.113Z,183.87
2018-03-06T22:38:39.547Z,175.37
2018-03-06T22:42:42.954Z,185.63
2018-03-06T22:46:47.100Z,171.97
2018-03-06T22:50:50.453Z,181.77
2018-03-06T22:54:53.964Z,191.23
2018-03-06T22:58:57.354Z,198.97
2018-03-06T23:03:00.734Z,198.67
2018-03-06T23:07:04.116Z,185.53
2018-03-06T23:11:08.271Z,204.00
2018-03-06T23:15:11.651Z,211.40
2018-03-06T23:19:15.033Z,201.50
2018-03-06T23:23:18.476Z,190.63
2018-03-06T23:27:21.838Z,201.70
2018-03-06T23:31:25.205Z,200.43
2018-03-06T23:35:28.576Z,201.83
2018-03-06T23:39:32.191Z,210.67
2018-03-06T23:43:35.587Z,205.57
2018-03-06T23:47:39.803Z,207.17
2018-03-06T23:51:44.010Z,211.17
2018-03-06T23:55:47.378Z,214.20
2018-03-06T23:59:50.728Z,205.90
